Time;durP1;ratioP1;P1;durP2;ratioP2;P2;SDS_P1;SDS_P2;PMS_P1;PMS_P2;Temp;Humidity;BMP_temperature;BMP_pressure;BME280_temperature;BME280_humidity;BME280_pressure;Samples;Min_cycle;Max_cycle;Signal;HPM_P1;HPM_P2
2022/01/10 00:01:06;;;;;;;8.67;4.73;;;4.20;99.90;;;;;;4982491;28;20204;-78
2022/01/10 00:03:32;;;;;;;12.00;5.43;;;4.20;99.90;;;;;;4999201;28;20204;-78
2022/01/10 00:05:58;;;;;;;6.83;4.07;;;4.10;99.90;;;;;;4983251;28;20208;-78
2022/01/10 00:08:23;;;;;;;9.57;5.27;;;4.10;99.90;;;;;;4983319;28;21127;-78
2022/01/10 00:10:51;;;;;;;10.27;4.93;;;4.10;99.90;;;;;;4982987;28;20284;-78
2022/01/10 00:13:17;;;;;;;9.83;4.40;;;4.10;99.90;;;;;;4984421;28;20188;-78
2022/01/10 00:15:44;;;;;;;8.63;4.57;;;4.10;99.90;;;;;;4983134;28;20188;-78
2022/01/10 00:18:10;;;;;;;8.50;4.43;;;4.10;99.90;;;;;;4981586;28;20199;-78
2022/01/10 00:20:36;;;;;;;11.83;4.60;;;4.20;99.90;;;;;;4983377;28;20200;-77
2022/01/10 00:23:02;;;;;;;8.57;4.17;;;4.10;99.90;;;;;;4983635;28;20197;-78
2022/01/10 00:25:28;;;;;;;7.80;4.10;;;4.10;99.90;;;;;;4982361;28;20273;-78
2022/01/10 00:27:54;;;;;;;6.67;3.93;;;4.00;99.90;;;;;;4982556;28;20655;-78
2022/01/10 00:30:21;;;;;;;10.70;4.60;;;4.00;99.90;;;;;;4980502;28;20193;-78
2022/01/10 00:32:47;;;;;;;8.70;4.80;;;4.00;99.90;;;;;;4984903;28;20199;-78
2022/01/10 00:35:14;;;;;;;8.70;4.73;;;4.00;99.90;;;;;;4984140;28;20192;-78
2022/01/10 00:37:42;;;;;;;8.23;4.20;;;4.00;99.90;;;;;;4982677;28;20184;-78
2022/01/10 00:40:09;;;;;;;6.80;4.43;;;4.10;99.90;;;;;;4980675;28;20204;-77
2022/01/10 00:42:34;;;;;;;8.27;4.23;;;3.90;99.90;;;;;;4981350;28;20224;-78
2022/01/10 00:45:07;;;;;;;8.33;4.53;;;3.80;99.90;;;;;;4984930;28;20188;-78
2022/01/10 00:47:33;;;;;;;9.77;4.10;;;3.80;99.90;;;;;;4981678;28;20187;-78
2022/01/10 00:49:58;;;;;;;7.57;3.90;;;3.80;99.90;;;;;;4981298;28;20181;-78
2022/01/10 00:52:24;;;;;;;8.67;4.27;;;3.80;99.90;;;;;;4981545;28;20200;-78
2022/01/10 00:54:49;;;;;;;8.87;3.77;;;3.80;99.90;;;;;;4994047;28;20270;-77
2022/01/10 00:57:15;;;;;;;7.90;4.40;;;3.90;99.90;;;;;;4977098;28;20188;-77
2022/01/10 00:59:40;;;;;;;10.43;4.13;;;3.90;99.90;;;;;;4973550;28;20186;-77
2022/01/10 01:02:06;;;;;;;8.33;4.30;;;3.90;99.90;;;;;;4975922;28;20200;-78
2022/01/10 01:04:32;;;;;;;7.13;4.40;;;3.80;99.90;;;;;;4980988;28;20185;-78
2022/01/10 01:06:57;;;;;;;8.77;4.77;;;3.80;99.90;;;;;;4982682;28;20201;-79
2022/01/10 01:09:28;;;;;;;6.20;3.93;;;3.80;99.90;;;;;;4982870;28;20185;-78
2022/01/10 01:14:26;;;;;;;8.80;4.63;;;3.80;99.90;;;;;;4982570;28;20230;-78
2022/01/10 01:17:11;;;;;;;8.50;3.90;;;3.90;99.90;;;;;;4983444;28;20260;-78
2022/01/10 01:25:03;;;;;;;8.53;4.23;;;3.90;99.90;;;;;;4983322;28;20211;-78
2022/01/10 01:27:28;;;;;;;11.63;4.60;;;3.80;99.90;;;;;;4999039;28;20814;-78
2022/01/10 01:29:54;;;;;;;7.40;4.20;;;3.80;99.90;;;;;;4983231;28;20200;-78
2022/01/10 01:32:19;;;;;;;7.53;4.47;;;3.80;99.90;;;;;;4978266;28;20256;-77
2022/01/10 01:34:45;;;;;;;10.93;4.37;;;3.80;99.90;;;;;;4981386;28;20189;-78
2022/01/10 01:37:12;;;;;;;11.30;4.50;;;3.90;99.90;;;;;;4980026;28;20255;-78
2022/01/10 01:39:37;;;;;;;9.30;4.40;;;4.00;99.90;;;;;;4995978;28;20216;-78
2022/01/10 01:42:18;;;;;;;8.00;4.10;;;4.00;99.90;;;;;;4982860;28;20243;-78
2022/01/10 01:44:48;;;;;;;8.30;4.27;;;4.00;99.90;;;;;;4985206;28;20184;-79
2022/01/10 01:47:13;;;;;;;6.07;4.00;;;4.10;99.90;;;;;;4985551;28;20180;-79
2022/01/10 01:49:39;;;;;;;7.90;4.33;;;4.00;99.90;;;;;;4999367;28;20275;-79
2022/01/10 01:52:05;;;;;;;8.40;3.87;;;4.00;99.90;;;;;;4985950;28;20201;-79
2022/01/10 01:54:30;;;;;;;9.30;3.80;;;4.10;99.90;;;;;;4984602;28;20216;-79
2022/01/10 01:56:56;;;;;;;9.37;4.00;;;4.10;99.90;;;;;;4985019;28;20185;-79
2022/01/10 01:59:22;;;;;;;8.40;3.80;;;4.10;99.90;;;;;;4985455;28;20655;-79
2022/01/10 02:01:47;;;;;;;8.43;3.90;;;4.10;99.90;;;;;;4986365;28;20213;-79
2022/01/10 02:04:13;;;;;;;6.77;3.83;;;4.00;99.90;;;;;;4986320;28;20222;-79
2022/01/10 02:06:39;;;;;;;8.50;3.97;;;4.00;99.90;;;;;;4983231;28;20232;-79
2022/01/10 02:09:05;;;;;;;6.07;3.80;;;3.90;99.90;;;;;;4986078;28;20185;-79
2022/01/10 02:11:30;;;;;;;8.70;4.07;;;3.90;99.90;;;;;;4986339;28;20232;-79
2022/01/10 02:13:56;;;;;;;7.60;4.00;;;3.90;99.90;;;;;;4987998;28;20659;-79
2022/01/10 02:16:32;;;;;;;7.93;4.20;;;3.90;99.90;;;;;;4988656;28;20199;-79
2022/01/10 02:18:58;;;;;;;7.60;4.30;;;3.90;99.90;;;;;;4982932;28;20218;-79
2022/01/10 02:21:24;;;;;;;6.43;3.30;;;4.00;99.90;;;;;;5001477;28;20263;-79
2022/01/10 02:23:49;;;;;;;7.97;4.03;;;3.90;99.90;;;;;;5003025;28;20219;-79
2022/01/10 02:26:15;;;;;;;10.57;4.40;;;3.90;99.90;;;;;;4985954;28;20268;-79
2022/01/10 02:28:41;;;;;;;7.60;4.20;;;4.00;99.90;;;;;;4987742;28;20189;-79
2022/01/10 02:31:08;;;;;;;8.03;4.43;;;4.00;99.90;;;;;;5001317;28;20228;-79
2022/01/10 02:33:33;;;;;;;8.77;4.27;;;4.00;99.90;;;;;;4989948;28;20215;-79
2022/01/10 02:38:26;;;;;;;8.50;4.47;;;3.80;99.90;;;;;;4989211;28;20251;-79
2022/01/10 02:40:52;;;;;;;7.50;4.07;;;3.90;99.90;;;;;;4991523;28;20208;-79
2022/01/10 02:43:18;;;;;;;10.13;5.13;;;3.80;99.90;;;;;;4989544;28;20212;-78
2022/01/10 02:45:45;;;;;;;10.57;4.67;;;3.80;99.90;;;;;;4988945;28;21074;-79
2022/01/10 02:48:12;;;;;;;9.47;5.40;;;3.70;99.90;;;;;;4990526;28;20248;-79
2022/01/10 02:50:37;;;;;;;12.23;4.87;;;3.70;99.90;;;;;;4990327;28;20275;-78
2022/01/10 02:53:03;;;;;;;10.87;4.73;;;3.70;99.90;;;;;;4991861;28;20247;-79
2022/01/10 02:55:29;;;;;;;9.70;5.20;;;3.70;99.90;;;;;;4988580;28;20714;-79
2022/01/10 02:57:55;;;;;;;8.90;4.93;;;3.70;99.90;;;;;;4988514;28;20177;-79
2022/01/10 03:00:23;;;;;;;9.10;4.67;;;3.70;99.90;;;;;;4987233;28;20208;-79
2022/01/10 03:02:51;;;;;;;8.10;4.70;;;3.70;99.90;;;;;;5005038;28;20227;-79
2022/01/10 03:05:18;;;;;;;12.27;5.13;;;3.60;99.90;;;;;;4989941;28;20188;-79
2022/01/10 03:07:45;;;;;;;10.83;4.83;;;3.60;99.90;;;;;;4989282;28;20208;-79
2022/01/10 03:10:11;;;;;;;8.70;5.10;;;3.60;99.90;;;;;;4990208;28;20207;-79
2022/01/10 03:12:37;;;;;;;8.67;4.77;;;3.60;99.90;;;;;;4989880;28;20204;-79
2022/01/10 03:15:07;;;;;;;10.50;4.70;;;3.50;99.90;;;;;;4990315;28;20189;-79
2022/01/10 03:17:35;;;;;;;10.17;4.53;;;3.50;99.90;;;;;;4987530;28;20188;-78
2022/01/10 03:20:02;;;;;;;12.53;5.20;;;3.40;99.90;;;;;;5002911;28;20667;-79
2022/01/10 03:22:28;;;;;;;10.57;5.27;;;3.40;99.90;;;;;;4989525;28;20229;-79
2022/01/10 03:24:56;;;;;;;11.50;4.67;;;3.40;99.90;;;;;;4987942;28;20176;-79
2022/01/10 03:27:22;;;;;;;6.20;4.67;;;3.50;99.90;;;;;;4989062;28;20280;-79
2022/01/10 03:29:47;;;;;;;8.03;4.43;;;3.50;99.90;;;;;;4988775;28;20740;-80
2022/01/10 03:32:13;;;;;;;7.73;3.97;;;3.50;99.90;;;;;;4986666;28;20217;-79
2022/01/10 03:34:39;;;;;;;10.07;4.60;;;3.40;99.90;;;;;;4987011;28;20523;-79
2022/01/10 03:37:06;;;;;;;9.07;4.30;;;3.30;99.90;;;;;;4986884;28;20177;-79
2022/01/10 03:39:32;;;;;;;7.60;4.40;;;3.30;99.90;;;;;;4988486;28;20191;-79
2022/01/10 03:41:57;;;;;;;8.53;3.97;;;3.20;99.90;;;;;;4987862;28;20211;-79
2022/01/10 03:44:23;;;;;;;9.97;4.53;;;3.30;99.90;;;;;;4990955;28;20212;-80
2022/01/10 03:46:49;;;;;;;13.17;5.10;;;3.30;99.90;;;;;;4988143;28;20181;-79
2022/01/10 03:49:15;;;;;;;12.73;5.23;;;3.30;99.90;;;;;;4986649;28;20209;-80
2022/01/10 03:51:41;;;;;;;8.33;4.63;;;3.40;99.90;;;;;;4990008;28;20220;-79
2022/01/10 03:54:07;;;;;;;9.90;5.43;;;3.50;99.90;;;;;;4994802;28;20204;-79
2022/01/10 03:56:33;;;;;;;10.33;4.93;;;3.40;99.90;;;;;;4991980;28;20261;-79
2022/01/10 03:58:58;;;;;;;12.67;4.80;;;3.40;99.90;;;;;;4990038;28;20184;-79
2022/01/10 04:01:24;;;;;;;8.10;4.67;;;3.30;99.90;;;;;;4986900;28;20678;-78
2022/01/10 04:03:51;;;;;;;10.43;7.00;;;3.30;99.90;;;;;;4988622;28;20213;-79
2022/01/10 04:06:17;;;;;;;16.87;8.33;;;3.30;99.90;;;;;;4985602;28;20553;-79
2022/01/10 04:08:43;;;;;;;17.67;9.70;;;3.30;99.90;;;;;;4985205;28;20174;-80
2022/01/10 04:11:08;;;;;;;14.63;6.33;;;3.40;99.90;;;;;;4990353;28;20205;-79
2022/01/10 04:13:34;;;;;;;10.93;7.03;;;3.50;99.90;;;;;;4990380;28;20181;-79
2022/01/10 04:16:00;;;;;;;18.53;6.87;;;3.40;99.90;;;;;;4995553;28;20736;-79
2022/01/10 04:18:26;;;;;;;13.73;5.77;;;3.40;99.90;;;;;;4989737;28;20193;-79
2022/01/10 04:20:52;;;;;;;10.50;6.37;;;3.50;99.90;;;;;;5002239;28;20205;-80
2022/01/10 04:23:18;;;;;;;12.20;6.00;;;3.50;99.90;;;;;;5002809;28;20216;-80
2022/01/10 04:25:44;;;;;;;12.17;6.80;;;3.50;99.90;;;;;;4987739;28;20244;-79
2022/01/10 04:28:10;;;;;;;10.33;5.83;;;3.50;99.90;;;;;;4989980;28;20188;-80
2022/01/10 04:30:36;;;;;;;12.47;7.43;;;3.50;99.90;;;;;;4986968;28;20651;-79
2022/01/10 04:33:03;;;;;;;17.27;6.80;;;3.50;99.90;;;;;;4987928;28;20192;-78
2022/01/10 04:35:30;;;;;;;12.13;6.30;;;3.40;99.90;;;;;;4988114;28;20671;-80
2022/01/10 04:37:56;;;;;;;14.73;7.33;;;3.30;99.90;;;;;;4987083;28;20189;-79
2022/01/10 04:40:22;;;;;;;14.37;7.43;;;3.30;99.90;;;;;;4989707;28;20747;-79
2022/01/10 04:42:47;;;;;;;9.63;6.23;;;3.30;99.90;;;;;;4986611;28;20204;-78
2022/01/10 04:45:13;;;;;;;10.33;6.03;;;3.30;99.90;;;;;;4989061;28;20915;-79
2022/01/10 04:47:39;;;;;;;11.40;6.10;;;3.30;99.90;;;;;;4999092;28;20185;-79
2022/01/10 04:52:32;;;;;;;11.60;5.53;;;3.30;99.90;;;;;;4977453;28;20205;-79
2022/01/10 04:54:59;;;;;;;12.90;5.30;;;3.40;99.90;;;;;;4980296;28;20212;-78
2022/01/10 04:57:25;;;;;;;11.07;5.37;;;3.50;99.90;;;;;;4975790;28;20203;-79
2022/01/10 04:59:50;;;;;;;9.73;5.50;;;3.60;99.90;;;;;;4980602;28;20196;-79
2022/01/10 05:02:17;;;;;;;7.57;4.90;;;3.60;99.90;;;;;;4981053;28;20208;-79
2022/01/10 05:04:42;;;;;;;7.27;5.03;;;3.60;99.90;;;;;;4975152;28;20188;-78
2022/01/10 05:07:08;;;;;;;11.47;5.30;;;3.60;99.90;;;;;;4971270;28;20663;-79
2022/01/10 05:09:34;;;;;;;15.30;5.90;;;3.50;99.90;;;;;;4970059;28;20180;-79
2022/01/10 05:12:00;;;;;;;11.60;5.63;;;3.50;99.90;;;;;;4969471;28;20208;-79
2022/01/10 05:14:26;;;;;;;8.77;4.67;;;3.60;99.90;;;;;;4970631;28;20189;-79
2022/01/10 05:16:52;;;;;;;10.23;5.13;;;3.50;99.90;;;;;;4988274;28;20619;-79
2022/01/10 05:19:18;;;;;;;10.90;4.67;;;3.60;99.90;;;;;;4981998;28;20216;-80
2022/01/10 05:21:43;;;;;;;9.00;4.90;;;3.50;99.90;;;;;;4980719;28;20583;-80
2022/01/10 05:24:09;;;;;;;10.17;5.23;;;3.50;99.90;;;;;;4977906;28;20240;-79
2022/01/10 05:26:35;;;;;;;10.63;4.97;;;3.50;99.90;;;;;;4976862;28;20721;-80
2022/01/10 05:29:02;;;;;;;9.77;5.03;;;3.50;99.90;;;;;;4980330;28;20749;-80
2022/01/10 05:31:29;;;;;;;9.77;4.80;;;3.50;99.90;;;;;;4992298;28;20299;-79
2022/01/10 05:33:55;;;;;;;6.87;4.60;;;3.50;99.90;;;;;;4980763;28;20220;-80
2022/01/10 05:36:22;;;;;;;9.23;4.53;;;3.50;99.90;;;;;;4990569;28;20189;-80
2022/01/10 05:38:47;;;;;;;12.03;4.87;;;3.50;99.90;;;;;;4976005;28;20185;-80
2022/01/10 05:41:13;;;;;;;9.83;5.03;;;3.50;99.90;;;;;;4976214;28;20616;-79
2022/01/10 05:43:38;;;;;;;8.70;4.70;;;3.50;99.90;;;;;;4984941;28;20208;-80
2022/01/10 05:46:08;;;;;;;9.83;4.73;;;3.50;99.90;;;;;;4985418;28;20249;-79
2022/01/10 05:48:35;;;;;;;8.70;4.57;;;3.50;99.90;;;;;;4994834;28;20176;-80
2022/01/10 05:51:01;;;;;;;10.33;5.70;;;3.40;99.90;;;;;;4987250;28;20211;-79
2022/01/10 05:53:27;;;;;;;10.87;4.87;;;3.50;99.90;;;;;;4977227;28;20196;-80
2022/01/10 05:55:52;;;;;;;10.60;5.10;;;3.50;99.90;;;;;;4984285;28;20189;-80
2022/01/10 05:58:18;;;;;;;9.10;4.47;;;3.50;99.90;;;;;;4975321;28;20256;-80
2022/01/10 06:00:44;;;;;;;10.13;4.87;;;3.50;99.90;;;;;;4974799;28;20215;-79
2022/01/10 06:03:10;;;;;;;11.70;5.40;;;3.50;99.90;;;;;;4975872;28;20216;-79
2022/01/10 06:05:36;;;;;;;11.47;5.37;;;3.50;99.90;;;;;;4999003;28;20208;-79
2022/01/10 06:08:04;;;;;;;10.63;4.93;;;3.50;99.90;;;;;;4978841;28;20259;-80
2022/01/10 06:10:31;;;;;;;10.43;5.67;;;3.50;99.90;;;;;;4978047;28;20213;-79
2022/01/10 06:12:57;;;;;;;7.77;4.93;;;3.50;99.90;;;;;;4984859;28;20181;-79
2022/01/10 06:15:23;;;;;;;11.37;5.03;;;3.50;99.90;;;;;;4981497;28;20216;-79
2022/01/10 06:17:49;;;;;;;11.30;5.37;;;3.50;99.90;;;;;;4979467;28;20188;-79
2022/01/10 06:20:15;;;;;;;9.33;5.60;;;3.50;99.90;;;;;;4978729;28;20312;-80
2022/01/10 06:22:41;;;;;;;8.47;5.20;;;3.50;99.90;;;;;;4987218;28;20227;-80
2022/01/10 06:25:09;;;;;;;8.27;5.43;;;3.50;99.90;;;;;;4997165;28;20190;-80
2022/01/10 06:27:34;;;;;;;10.53;5.40;;;3.50;99.90;;;;;;4982236;28;20685;-79
2022/01/10 06:30:00;;;;;;;9.13;5.17;;;3.60;99.90;;;;;;4979016;28;20188;-80
2022/01/10 06:32:26;;;;;;;10.13;5.70;;;3.60;99.90;;;;;;4985409;28;20221;-80
2022/01/10 06:34:52;;;;;;;9.07;6.00;;;3.60;99.90;;;;;;4998987;28;20200;-80
2022/01/10 06:37:19;;;;;;;8.97;5.40;;;3.60;99.90;;;;;;4978926;28;20192;-79
2022/01/10 06:39:45;;;;;;;13.43;6.13;;;3.60;99.90;;;;;;4979926;28;20189;-80
2022/01/10 06:42:11;;;;;;;14.47;6.03;;;3.60;99.90;;;;;;4981459;28;20220;-80
2022/01/10 06:44:37;;;;;;;15.00;6.20;;;3.60;99.90;;;;;;4979001;28;20247;-79
2022/01/10 06:47:03;;;;;;;12.40;6.07;;;3.70;99.90;;;;;;4979665;28;20181;-80
2022/01/10 06:49:29;;;;;;;14.33;6.10;;;3.80;99.90;;;;;;4984747;28;20192;-79
2022/01/10 06:51:54;;;;;;;11.70;6.10;;;3.70;99.90;;;;;;4984455;28;20220;-79
2022/01/10 06:54:20;;;;;;;10.67;5.73;;;3.80;99.90;;;;;;4984386;28;20192;-80
2022/01/10 06:56:46;;;;;;;11.23;5.33;;;3.80;99.90;;;;;;4978707;28;20249;-78
2022/01/10 06:59:12;;;;;;;11.57;5.57;;;3.70;99.90;;;;;;4997226;28;20227;-80
2022/01/10 07:01:37;;;;;;;12.03;6.20;;;3.80;99.90;;;;;;4981844;28;20731;-79
2022/01/10 07:04:03;;;;;;;10.60;5.63;;;3.80;99.90;;;;;;4980887;28;20236;-79
2022/01/10 07:06:29;;;;;;;11.40;6.00;;;3.70;99.90;;;;;;5004478;28;20353;-79
2022/01/10 07:08:55;;;;;;;9.30;6.30;;;3.70;99.90;;;;;;4983156;28;20181;-79
2022/01/10 07:11:21;;;;;;;11.37;5.77;;;3.70;99.90;;;;;;4977276;28;20327;-79
2022/01/10 07:13:47;;;;;;;11.80;6.57;;;3.70;99.90;;;;;;4978902;28;20635;-79
2022/01/10 07:16:12;;;;;;;13.80;6.60;;;3.80;99.90;;;;;;4983036;28;20216;-79
2022/01/10 07:18:39;;;;;;;11.63;5.63;;;3.80;99.90;;;;;;4996388;28;20189;-79
2022/01/10 07:21:05;;;;;;;15.00;5.73;;;3.70;99.90;;;;;;4977531;28;20213;-79
2022/01/10 07:23:30;;;;;;;12.70;7.93;;;3.70;99.90;;;;;;4981576;28;20223;-79
2022/01/10 07:25:56;;;;;;;14.73;8.80;;;3.80;99.90;;;;;;4983723;28;20652;-79
2022/01/10 07:28:21;;;;;;;14.90;7.63;;;3.70;99.90;;;;;;4985017;28;20203;-79
2022/01/10 07:30:49;;;;;;;10.80;6.47;;;3.80;99.90;;;;;;4985424;28;20248;-79
2022/01/10 07:33:15;;;;;;;11.37;6.47;;;3.90;99.90;;;;;;4979308;28;20244;-78
2022/01/10 07:35:40;;;;;;;10.33;5.97;;;3.90;99.90;;;;;;4977738;28;20193;-79
2022/01/10 07:38:06;;;;;;;13.00;6.13;;;3.90;99.90;;;;;;4978272;28;20253;-79
2022/01/10 07:40:32;;;;;;;13.60;6.30;;;4.00;99.90;;;;;;4989324;28;20224;-78
2022/01/10 07:42:57;;;;;;;10.87;6.10;;;4.00;99.90;;;;;;4980649;28;20228;-79
2022/01/10 07:45:23;;;;;;;11.03;6.27;;;4.00;99.90;;;;;;4977945;28;20754;-79
2022/01/10 07:47:48;;;;;;;13.17;6.13;;;4.00;99.90;;;;;;4979692;28;20213;-78
2022/01/10 07:50:14;;;;;;;11.77;6.83;;;4.00;99.90;;;;;;4979681;28;20220;-79
2022/01/10 07:52:40;;;;;;;10.23;5.83;;;4.00;99.90;;;;;;4988430;28;20436;-79
2022/01/10 07:55:06;;;;;;;12.70;6.27;;;4.00;99.90;;;;;;4977051;28;20693;-79
2022/01/10 07:57:32;;;;;;;12.80;6.03;;;4.00;99.90;;;;;;4977014;28;20280;-79
2022/01/10 07:59:57;;;;;;;13.17;6.30;;;4.10;99.90;;;;;;4976660;28;20211;-79
2022/01/10 08:02:24;;;;;;;16.10;6.30;;;4.00;99.90;;;;;;4981576;28;20208;-79
2022/01/10 08:04:50;;;;;;;11.87;5.53;;;4.00;99.90;;;;;;4980916;28;20177;-79
2022/01/10 08:07:15;;;;;;;14.80;6.80;;;4.00;99.90;;;;;;4983959;28;20196;-79
2022/01/10 08:09:41;;;;;;;12.67;6.53;;;4.00;99.90;;;;;;4995360;28;20187;-79
2022/01/10 08:12:07;;;;;;;12.10;6.13;;;4.00;99.90;;;;;;4977874;28;20204;-79
2022/01/10 08:14:33;;;;;;;8.10;6.10;;;4.00;99.90;;;;;;4982952;28;20225;-79
2022/01/10 08:17:00;;;;;;;16.87;6.77;;;4.00;99.90;;;;;;4984905;28;20583;-79
2022/01/10 08:19:31;;;;;;;11.53;6.77;;;4.00;99.90;;;;;;5000639;28;20284;-79
2022/01/10 08:21:57;;;;;;;13.77;6.07;;;4.10;99.90;;;;;;5003611;28;20219;-79
2022/01/10 08:24:23;;;;;;;13.70;6.70;;;4.20;99.90;;;;;;4995124;28;20211;-79
2022/01/10 08:26:50;;;;;;;13.33;6.40;;;4.20;99.90;;;;;;4974103;28;20184;-79
2022/01/10 08:29:16;;;;;;;14.97;7.30;;;4.20;99.90;;;;;;4977124;28;20188;-78
2022/01/10 08:31:41;;;;;;;10.57;6.37;;;4.20;99.90;;;;;;4992010;28;20221;-79
2022/01/10 08:34:07;;;;;;;13.03;5.63;;;4.30;99.90;;;;;;4979913;28;20192;-79
2022/01/10 08:36:34;;;;;;;11.40;6.30;;;4.30;99.90;;;;;;4988573;28;20291;-79
2022/01/10 08:39:00;;;;;;;10.53;5.37;;;4.40;99.90;;;;;;4979413;28;20189;-79
2022/01/10 08:41:26;;;;;;;16.17;6.00;;;4.50;99.90;;;;;;4981855;28;20217;-80
2022/01/10 08:43:51;;;;;;;8.70;5.07;;;4.50;99.90;;;;;;4984835;28;20895;-79
2022/01/10 08:46:17;;;;;;;13.07;5.13;;;4.50;99.90;;;;;;4980602;28;21216;-80
2022/01/10 08:48:42;;;;;;;11.67;4.90;;;4.50;99.90;;;;;;4979362;28;20181;-77
2022/01/10 08:51:08;;;;;;;10.67;5.20;;;4.40;99.90;;;;;;4985465;28;20248;-80
2022/01/10 08:53:34;;;;;;;11.83;5.23;;;4.50;99.90;;;;;;4985678;28;20189;-79
2022/01/10 08:56:00;;;;;;;11.40;5.77;;;4.60;99.90;;;;;;4972407;28;20280;-79
2022/01/10 08:58:32;;;;;;;13.13;6.03;;;4.60;99.90;;;;;;4971114;28;20196;-79
2022/01/10 09:00:59;;;;;;;14.20;6.23;;;4.60;99.90;;;;;;4976121;28;20271;-79
2022/01/10 09:03:24;;;;;;;13.07;6.37;;;4.70;99.90;;;;;;4984393;28;20213;-78
2022/01/10 09:05:50;;;;;;;14.30;5.70;;;4.60;99.90;;;;;;4985038;28;20198;-79
2022/01/10 09:08:15;;;;;;;10.60;5.27;;;4.70;99.90;;;;;;4981565;28;20231;-79
2022/01/10 09:10:41;;;;;;;12.23;5.73;;;4.80;99.90;;;;;;4981049;28;20212;-79
2022/01/10 09:13:07;;;;;;;11.50;6.17;;;4.80;99.90;;;;;;4984592;28;20192;-79
2022/01/10 09:15:34;;;;;;;12.73;7.00;;;4.80;99.90;;;;;;4984599;28;20329;-78
2022/01/10 09:17:59;;;;;;;12.03;6.60;;;4.90;99.90;;;;;;4983150;28;20180;-78
2022/01/10 09:20:25;;;;;;;11.70;6.63;;;5.00;99.90;;;;;;4978637;28;20268;-79
2022/01/10 09:22:51;;;;;;;12.90;5.80;;;5.00;99.90;;;;;;4979173;28;20254;-78
2022/01/10 09:25:17;;;;;;;12.07;6.50;;;5.00;99.90;;;;;;4992583;28;20192;-79
2022/01/10 09:27:42;;;;;;;11.13;6.40;;;5.00;99.90;;;;;;4976966;28;20191;-78
2022/01/10 09:30:09;;;;;;;12.63;5.80;;;5.00;99.90;;;;;;4974531;28;20192;-78
2022/01/10 09:32:34;;;;;;;11.07;6.40;;;5.00;99.90;;;;;;4976525;28;20224;-79
2022/01/10 09:35:00;;;;;;;14.50;6.80;;;4.90;99.90;;;;;;5005445;28;20346;-80
2022/01/10 09:37:27;;;;;;;13.13;6.73;;;5.00;99.90;;;;;;4977779;28;20664;-79
2022/01/10 09:39:52;;;;;;;13.17;6.50;;;5.10;99.90;;;;;;4977222;28;20180;-80
2022/01/10 09:42:18;;;;;;;16.17;6.97;;;5.10;99.90;;;;;;4973556;28;20741;-79
2022/01/10 09:44:44;;;;;;;14.10;7.63;;;5.00;99.90;;;;;;4976193;28;20208;-80
2022/01/10 09:47:10;;;;;;;14.87;6.80;;;5.10;99.90;;;;;;4973395;28;20224;-80
2022/01/10 09:49:36;;;;;;;15.83;7.40;;;5.10;99.90;;;;;;4988197;28;20192;-79
2022/01/10 09:52:03;;;;;;;13.30;6.00;;;5.10;99.90;;;;;;4972377;28;20209;-79
2022/01/10 09:54:29;;;;;;;18.37;7.17;;;5.30;99.90;;;;;;4973469;28;20663;-79
2022/01/10 09:56:55;;;;;;;13.63;7.03;;;5.30;99.90;;;;;;4994818;28;20188;-79
2022/01/10 09:59:21;;;;;;;14.33;7.23;;;5.30;99.90;;;;;;4986140;28;20560;-80
2022/01/10 10:01:50;;;;;;;14.40;7.07;;;5.30;99.90;;;;;;4991870;28;20205;-80
2022/01/10 10:04:17;;;;;;;12.57;6.30;;;5.30;99.90;;;;;;4982969;28;20299;-79
2022/01/10 10:06:45;;;;;;;13.17;7.20;;;5.40;99.90;;;;;;4981777;28;20220;-78
2022/01/10 10:09:10;;;;;;;13.30;7.67;;;5.40;99.90;;;;;;4977693;28;20216;-79
2022/01/10 10:11:38;;;;;;;14.97;7.53;;;5.40;99.90;;;;;;4976708;28;20252;-79
2022/01/10 10:14:06;;;;;;;19.30;8.73;;;5.40;99.90;;;;;;4979033;28;20185;-79
2022/01/10 10:16:35;;;;;;;13.87;7.27;;;5.50;99.90;;;;;;4999220;28;20564;-79
2022/01/10 10:19:02;;;;;;;14.10;7.30;;;5.50;99.90;;;;;;4992167;28;20223;-79
2022/01/10 10:21:27;;;;;;;18.57;7.23;;;5.50;99.90;;;;;;4980692;28;20216;-79
2022/01/10 10:23:53;;;;;;;13.03;6.87;;;5.50;99.90;;;;;;4976214;28;20267;-79
2022/01/10 10:26:24;;;;;;;17.23;10.33;;;5.70;99.90;;;;;;4992589;28;20331;-80
2022/01/10 10:28:52;;;;;;;13.97;6.40;;;5.70;99.90;;;;;;4976571;28;20173;-79
2022/01/10 10:31:48;;;;;;;23.33;10.03;;;5.60;99.90;;;;;;4980193;28;20533;-80
2022/01/10 10:34:27;;;;;;;19.73;8.20;;;5.50;99.90;;;;;;4971729;28;20209;-79
2022/01/10 10:37:14;;;;;;;13.93;7.37;;;5.60;99.90;;;;;;4977013;28;20185;-80
2022/01/10 10:39:44;;;;;;;12.97;6.97;;;5.60;99.90;;;;;;4972109;28;20181;-79
2022/01/10 10:42:16;;;;;;;10.30;6.20;;;5.60;99.90;;;;;;4978195;28;20223;-79
2022/01/10 10:44:43;;;;;;;18.37;7.13;;;5.40;99.90;;;;;;4972751;28;20195;-79
2022/01/10 10:47:10;;;;;;;13.07;6.83;;;5.40;99.90;;;;;;4974951;28;20195;-79
2022/01/10 10:49:44;;;;;;;12.00;6.97;;;5.50;99.90;;;;;;4973432;28;20189;-79
2022/01/10 10:52:11;;;;;;;13.00;7.23;;;5.50;99.90;;;;;;4980582;28;20263;-79
2022/01/10 10:54:37;;;;;;;13.90;7.07;;;5.60;99.90;;;;;;4985333;28;20717;-79
2022/01/10 10:57:05;;;;;;;15.43;7.80;;;5.50;99.90;;;;;;4983470;28;20193;-79
2022/01/10 10:59:35;;;;;;;18.60;11.57;;;5.50;99.90;;;;;;4986811;28;20193;-79
2022/01/10 11:02:03;;;;;;;15.27;8.07;;;5.50;99.90;;;;;;4989106;28;20701;-79
2022/01/10 11:04:30;;;;;;;11.93;8.33;;;5.60;99.90;;;;;;4984431;28;20592;-79
2022/01/10 11:06:57;;;;;;;14.73;8.20;;;5.50;99.90;;;;;;4986912;28;20188;-79
2022/01/10 11:09:23;;;;;;;18.97;8.50;;;5.60;99.90;;;;;;5003262;28;20185;-80
2022/01/10 11:11:49;;;;;;;22.07;9.13;;;5.60;99.90;;;;;;4987746;28;20300;-79
2022/01/10 11:14:17;;;;;;;12.70;7.87;;;5.60;99.90;;;;;;5004135;28;20203;-79
2022/01/10 11:16:45;;;;;;;14.37;8.07;;;5.60;99.90;;;;;;4986789;28;20185;-79
2022/01/10 11:19:21;;;;;;;15.00;8.23;;;5.60;99.90;;;;;;4988421;28;20504;-79
2022/01/10 11:21:55;;;;;;;15.77;9.27;;;5.60;99.90;;;;;;4986528;28;20677;-79
2022/01/10 11:24:41;;;;;;;13.40;7.93;;;5.60;99.90;;;;;;4979713;28;20920;-79
2022/01/10 11:27:34;;;;;;;17.00;9.17;;;5.60;99.90;;;;;;4986734;28;20183;-79
2022/01/10 11:30:06;;;;;;;17.03;9.00;;;5.50;99.90;;;;;;4972959;28;20192;-79
2022/01/10 11:32:56;;;;;;;20.83;9.67;;;5.50;99.90;;;;;;4972699;28;20251;-79
2022/01/10 11:35:26;;;;;;;16.93;8.97;;;5.50;99.90;;;;;;4971930;28;20261;-79
2022/01/10 11:37:52;;;;;;;19.03;10.13;;;5.50;99.90;;;;;;4973060;28;20208;-79
2022/01/10 11:40:19;;;;;;;23.03;14.57;;;5.50;99.90;;;;;;4979764;28;20180;-79
2022/01/10 11:42:57;;;;;;;20.70;9.57;;;5.50;99.90;;;;;;4985449;28;20263;-78
2022/01/10 11:45:23;;;;;;;19.97;10.13;;;5.50;99.90;;;;;;4987028;28;20180;-78
2022/01/10 11:48:07;;;;;;;19.87;10.90;;;5.50;99.90;;;;;;4984735;28;20179;-79
2022/01/10 11:50:32;;;;;;;19.10;10.17;;;5.40;99.90;;;;;;4986519;28;20215;-79
2022/01/10 11:53:02;;;;;;;17.93;9.90;;;5.40;99.90;;;;;;4983259;28;20508;-78
2022/01/10 11:55:43;;;;;;;17.23;10.83;;;5.40;99.90;;;;;;4999887;28;20241;-79
2022/01/10 11:58:21;;;;;;;16.57;9.40;;;5.50;99.90;;;;;;4985777;28;20494;-79
2022/01/10 12:00:46;;;;;;;18.30;9.73;;;5.50;99.90;;;;;;4986534;28;20204;-78
2022/01/10 12:03:12;;;;;;;12.97;8.30;;;5.40;99.90;;;;;;4985998;28;20262;-78
2022/01/10 12:05:39;;;;;;;17.10;9.17;;;5.40;99.90;;;;;;4980348;28;20275;-79
2022/01/10 12:08:05;;;;;;;13.73;8.27;;;5.40;99.90;;;;;;4976493;28;20173;-78
2022/01/10 12:10:32;;;;;;;16.33;7.70;;;5.50;99.90;;;;;;4976590;28;20192;-79
2022/01/10 12:13:09;;;;;;;12.10;7.80;;;5.40;99.90;;;;;;4978948;28;20180;-78
2022/01/10 12:15:36;;;;;;;15.07;7.50;;;5.50;99.90;;;;;;4985389;28;20252;-79
2022/01/10 12:18:03;;;;;;;19.20;7.70;;;5.60;99.90;;;;;;4982538;28;20183;-79
2022/01/10 12:20:29;;;;;;;13.83;7.73;;;5.50;99.90;;;;;;4998356;28;20189;-79
2022/01/10 12:22:56;;;;;;;13.53;8.20;;;5.50;99.90;;;;;;5000377;28;20819;-79
2022/01/10 12:25:22;;;;;;;16.00;8.23;;;5.50;99.90;;;;;;4985526;28;20656;-79
2022/01/10 12:27:49;;;;;;;14.17;7.70;;;5.60;99.90;;;;;;4999877;28;20203;-78
2022/01/10 12:30:16;;;;;;;12.63;8.87;;;5.60;99.90;;;;;;4985521;28;20181;-79
2022/01/10 12:32:42;;;;;;;14.90;7.87;;;5.60;99.90;;;;;;4988046;28;20311;-79
2022/01/10 12:35:09;;;;;;;12.50;7.83;;;5.70;99.90;;;;;;4975038;28;20393;-79
2022/01/10 12:37:35;;;;;;;13.57;7.77;;;5.70;99.90;;;;;;4974355;28;20188;-78
2022/01/10 12:40:02;;;;;;;12.57;7.57;;;5.70;99.90;;;;;;4989616;28;20677;-79
2022/01/10 12:42:28;;;;;;;17.27;9.00;;;5.80;99.90;;;;;;4974590;28;20213;-79
2022/01/10 12:44:54;;;;;;;11.93;7.83;;;5.70;99.90;;;;;;4981177;28;20500;-79
2022/01/10 12:47:20;;;;;;;14.50;7.50;;;5.70;99.90;;;;;;4974164;28;20220;-79
2022/01/10 12:49:47;;;;;;;13.93;8.07;;;5.70;99.90;;;;;;4970736;28;20279;-79
2022/01/10 12:52:14;;;;;;;18.73;8.73;;;5.70;99.90;;;;;;4972779;28;20240;-79
2022/01/10 12:54:40;;;;;;;15.10;8.80;;;5.70;99.90;;;;;;4973030;28;20188;-79
2022/01/10 12:57:06;;;;;;;13.63;8.30;;;5.80;99.90;;;;;;4976963;28;20718;-78
2022/01/10 12:59:35;;;;;;;14.87;8.57;;;5.70;99.90;;;;;;4973432;28;20189;-79
2022/01/10 13:02:03;;;;;;;17.07;8.70;;;5.80;99.90;;;;;;4980148;28;20460;-79